PWSweather.com
Personal Weather Stations
Station Observations
KCOGRAND2
Redlands, Southcamp Road & Dakota Circle, Grand Junction, CO 81507

Redlands, Southcamp Road & Dakota CircleGrand Junction, CO 81507

Lat: 39.055, Lon: -108.637

Elevation: 4870

Station Type: RadioShack WX200

High Low Average
Temperature 99.5°F37.5°C 63.3°F17.4°C 84.0°F28.9°C
Dew Point -5537.2°C -5537.2°C -5537.2°C
Winds 10.0 mph 16.1 kmh Calm Calm 5.0 mph S8.0 kmh S
Wind Gusts 15.9 mph25.6 kmh -- 8.0 mph12.9 kmh
Humidity - - -
Pressure 25.28 in856.1 mb 25.13 in851.0 mb -
Precipitation 0.00 in0.0 mm - -
Hour Temp Dew Point Humidity Winds Wind Gusts Pressure Precip Precip Rate Daily Precip Total
12:02 AM 80.6°F27.0°C -5537.2°C - 2.0 mph WSW3.2 kmh WSW 7.4 mph11.9 kmh 25.16 in852.0 mb 0.00 in0.0 mm 0.00 in/hr0.0 mm/hr 0.00 in0.0 mm
12:07 AM 82.0°F27.8°C -5537.2°C - 3.0 mph NW4.8 kmh NW 5.8 mph9.3 kmh 25.16 in852.0 mb 0.00 in0.0 mm 0.00 in/hr0.0 mm/hr 0.00 in0.0 mm
12:12 AM 83.1°F28.4°C -5537.2°C - 3.0 mph N4.8 kmh N 5.8 mph9.3 kmh 25.16 in852.0 mb 0.00 in0.0 mm 0.00 in/hr0.0 mm/hr 0.00 in0.0 mm
12:17 AM 82.2°F27.9°C -5537.2°C - 2.0 mph NNW3.2 kmh NNW 3.6 mph5.8 kmh 25.16 in852.0 mb 0.00 in0.0 mm 0.00 in/hr0.0 mm/hr 0.00 in0.0 mm
12:22 AM 80.4°F26.9°C -5537.2°C - Calm Calm -- 25.16 in852.0 mb 0.00 in0.0 mm 0.00 in/hr0.0 mm/hr 0.00 in0.0 mm
12:27 AM 79.9°F26.6°C -5537.2°C - Calm Calm 5.8 mph9.3 kmh 25.16 in852.0 mb 0.00 in0.0 mm 0.00 in/hr0.0 mm/hr 0.00 in0.0 mm
12:32 AM 80.8°F27.1°C -5537.2°C - 2.0 mph NW3.2 kmh NW 5.8 mph9.3 kmh 25.16 in852.0 mb 0.00 in0.0 mm 0.00 in/hr0.0 mm/hr 0.00 in0.0 mm
12:37 AM 80.2°F26.8°C -5537.2°C - 3.0 mph WNW4.8 kmh WNW 5.4 mph8.7 kmh 25.16 in852.0 mb 0.00 in0.0 mm 0.00 in/hr0.0 mm/hr 0.00 in0.0 mm
12:42 AM 79.7°F26.5°C -5537.2°C - 2.0 mph WNW3.2 kmh WNW 3.6 mph5.8 kmh 25.16 in852.0 mb 0.00 in0.0 mm 0.00 in/hr0.0 mm/hr 0.00 in0.0 mm
12:47 AM 79.0°F26.1°C -5537.2°C - 1.0 mph NW1.6 kmh NW 5.4 mph8.7 kmh 25.16 in852.0 mb 0.00 in0.0 mm 0.00 in/hr0.0 mm/hr 0.00 in0.0 mm
12:52 AM 78.4°F25.8°C -5537.2°C - 2.0 mph NW3.2 kmh NW 7.4 mph11.9 kmh 25.16 in852.0 mb 0.00 in0.0 mm 0.00 in/hr0.0 mm/hr 0.00 in0.0 mm
12:57 AM 75.6°F24.2°C -5537.2°C - 4.0 mph WNW6.4 kmh WNW 6.9 mph11.1 kmh 25.16 in852.0 mb 0.00 in0.0 mm 0.00 in/hr0.0 mm/hr 0.00 in0.0 mm
01:02 AM 74.1°F23.4°C -5537.2°C - 4.0 mph WSW6.4 kmh WSW 6.7 mph10.8 kmh 25.16 in852.0 mb 0.00 in0.0 mm 0.00 in/hr0.0 mm/hr 0.00 in0.0 mm
01:07 AM 75.7°F24.3°C -5537.2°C - 3.0 mph W4.8 kmh W 5.4 mph8.7 kmh 25.16 in852.0 mb 0.00 in0.0 mm 0.00 in/hr0.0 mm/hr 0.00 in0.0 mm
01:12 AM 75.9°F24.4°C -5537.2°C - 4.0 mph NW6.4 kmh NW 7.4 mph11.9 kmh 25.16 in852.0 mb 0.00 in0.0 mm 0.00 in/hr0.0 mm/hr 0.00 in0.0 mm
01:17 AM 75.0°F23.9°C -5537.2°C - 3.0 mph N4.8 kmh N 5.8 mph9.3 kmh 25.16 in852.0 mb 0.00 in0.0 mm 0.00 in/hr0.0 mm/hr 0.00 in0.0 mm
01:22 AM 74.3°F23.5°C -5537.2°C - 2.0 mph N3.2 kmh N 5.8 mph9.3 kmh 25.16 in852.0 mb 0.00 in0.0 mm 0.00 in/hr0.0 mm/hr 0.00 in0.0 mm
01:27 AM 72.9°F22.7°C -5537.2°C - 3.0 mph NNE4.8 kmh NNE 5.4 mph8.7 kmh 25.16 in852.0 mb 0.00 in0.0 mm 0.00 in/hr0.0 mm/hr 0.00 in0.0 mm
01:32 AM 72.5°F22.5°C -5537.2°C - 2.0 mph NE3.2 kmh NE 3.6 mph5.8 kmh 25.16 in852.0 mb 0.00 in0.0 mm 0.00 in/hr0.0 mm/hr 0.00 in0.0 mm
01:37 AM 72.1°F22.3°C -5537.2°C - Calm Calm 2.7 mph4.3 kmh 25.16 in852.0 mb 0.00 in0.0 mm 0.00 in/hr0.0 mm/hr 0.00 in0.0 mm
01:42 AM 71.6°F22.0°C -5537.2°C - Calm Calm 4.9 mph7.9 kmh 25.16 in852.0 mb 0.00 in0.0 mm 0.00 in/hr0.0 mm/hr 0.00 in0.0 mm
01:47 AM 71.6°F22.0°C -5537.2°C - Calm Calm 3.6 mph5.8 kmh 25.19 in853.0 mb 0.00 in0.0 mm 0.00 in/hr0.0 mm/hr 0.00 in0.0 mm
01:52 AM 71.8°F22.1°C -5537.2°C - 1.0 mph ENE1.6 kmh ENE 5.8 mph9.3 kmh 25.19 in853.0 mb 0.00 in0.0 mm 0.00 in/hr0.0 mm/hr 0.00 in0.0 mm
01:57 AM 71.8°F22.1°C -5537.2°C - 1.0 mph E1.6 kmh E 2.7 mph4.3 kmh 25.19 in853.0 mb 0.00 in0.0 mm 0.00 in/hr0.0 mm/hr 0.00 in0.0 mm
02:02 AM 72.1°F22.3°C -5537.2°C - 1.0 mph E1.6 kmh E 4.5 mph7.2 kmh 25.16 in852.0 mb 0.00 in0.0 mm 0.00 in/hr0.0 mm/hr 0.00 in0.0 mm
02:07 AM 71.6°F22.0°C -5537.2°C - 2.0 mph E3.2 kmh E 4.9 mph7.9 kmh 25.16 in852.0 mb 0.00 in0.0 mm 0.00 in/hr0.0 mm/hr 0.00 in0.0 mm
02:12 AM 70.2°F21.2°C -5537.2°C - 2.0 mph E3.2 kmh E 6.3 mph10.1 kmh 25.16 in852.0 mb 0.00 in0.0 mm 0.00 in/hr0.0 mm/hr 0.00 in0.0 mm
02:17 AM 70.7°F21.5°C -5537.2°C - 1.0 mph E1.6 kmh E 4.5 mph7.2 kmh 25.19 in853.0 mb 0.00 in0.0 mm 0.00 in/hr0.0 mm/hr 0.00 in0.0 mm
02:22 AM 70.0°F21.1°C -5537.2°C - 2.0 mph ENE3.2 kmh ENE 4.9 mph7.9 kmh 25.19 in853.0 mb 0.00 in0.0 mm 0.00 in/hr0.0 mm/hr 0.00 in0.0 mm
02:27 AM 70.3°F21.3°C -5537.2°C - 3.0 mph ENE4.8 kmh ENE 5.4 mph8.7 kmh 25.19 in853.0 mb 0.00 in0.0 mm 0.00 in/hr0.0 mm/hr 0.00 in0.0 mm
02:32 AM 70.0°F21.1°C -5537.2°C - 2.0 mph ENE3.2 kmh ENE 6.3 mph10.1 kmh 25.16 in852.0 mb 0.00 in0.0 mm 0.00 in/hr0.0 mm/hr 0.00 in0.0 mm
02:37 AM 69.4°F20.8°C -5537.2°C - 2.0 mph NE3.2 kmh NE 4.5 mph7.2 kmh 25.16 in852.0 mb 0.00 in0.0 mm 0.00 in/hr0.0 mm/hr 0.00 in0.0 mm
02:42 AM 68.7°F20.4°C -5537.2°C - 3.0 mph NNE4.8 kmh NNE 6.3 mph10.1 kmh 25.16 in852.0 mb 0.00 in0.0 mm 0.00 in/hr0.0 mm/hr 0.00 in0.0 mm
02:47 AM 68.9°F20.5°C -5537.2°C - 3.0 mph NNE4.8 kmh NNE 5.4 mph8.7 kmh 25.19 in853.0 mb 0.00 in0.0 mm 0.00 in/hr0.0 mm/hr 0.00 in0.0 mm
02:52 AM 68.2°F20.1°C -5537.2°C - 2.0 mph NE3.2 kmh NE 5.4 mph8.7 kmh 25.19 in853.0 mb 0.00 in0.0 mm 0.00 in/hr0.0 mm/hr 0.00 in0.0 mm
02:57 AM 68.4°F20.2°C -5537.2°C - 1.0 mph ENE1.6 kmh ENE 3.1 mph5.0 kmh 25.19 in853.0 mb 0.00 in0.0 mm 0.00 in/hr0.0 mm/hr 0.00 in0.0 mm
03:02 AM 70.5°F21.4°C -5537.2°C - 2.0 mph NE3.2 kmh NE 7.4 mph11.9 kmh 25.19 in853.0 mb 0.00 in0.0 mm 0.00 in/hr0.0 mm/hr 0.00 in0.0 mm
03:07 AM 68.7°F20.4°C -5537.2°C - 4.0 mph NE6.4 kmh NE 7.8 mph12.6 kmh 25.19 in853.0 mb 0.00 in0.0 mm 0.00 in/hr0.0 mm/hr 0.00 in0.0 mm
03:12 AM 70.9°F21.6°C -5537.2°C - 4.0 mph N6.4 kmh N 6.7 mph10.8 kmh 25.19 in853.0 mb 0.00 in0.0 mm 0.00 in/hr0.0 mm/hr 0.00 in0.0 mm
03:17 AM 70.9°F21.6°C -5537.2°C - 3.0 mph N4.8 kmh N 7.4 mph11.9 kmh 25.19 in853.0 mb 0.00 in0.0 mm 0.00 in/hr0.0 mm/hr 0.00 in0.0 mm
03:22 AM 69.1°F20.6°C -5537.2°C - 3.0 mph NNE4.8 kmh NNE 5.4 mph8.7 kmh 25.19 in853.0 mb 0.00 in0.0 mm 0.00 in/hr0.0 mm/hr 0.00 in0.0 mm
03:27 AM 68.4°F20.2°C -5537.2°C - 2.0 mph NE3.2 kmh NE 4.0 mph6.4 kmh 25.19 in853.0 mb 0.00 in0.0 mm 0.00 in/hr0.0 mm/hr 0.00 in0.0 mm
03:32 AM 67.8°F19.9°C -5537.2°C - 2.0 mph NE3.2 kmh NE 6.3 mph10.1 kmh 25.19 in853.0 mb 0.00 in0.0 mm 0.00 in/hr0.0 mm/hr 0.00 in0.0 mm
03:37 AM 70.0°F21.1°C -5537.2°C - 4.0 mph NNW6.4 kmh NNW 9.2 mph14.8 kmh 25.19 in853.0 mb 0.00 in0.0 mm 0.00 in/hr0.0 mm/hr 0.00 in0.0 mm
03:42 AM 70.5°F21.4°C -5537.2°C - 4.0 mph NW6.4 kmh NW 6.9 mph11.1 kmh 25.19 in853.0 mb 0.00 in0.0 mm 0.00 in/hr0.0 mm/hr 0.00 in0.0 mm
03:47 AM 70.7°F21.5°C -5537.2°C - 4.0 mph NW6.4 kmh NW 8.3 mph13.4 kmh 25.19 in853.0 mb 0.00 in0.0 mm 0.00 in/hr0.0 mm/hr 0.00 in0.0 mm
03:52 AM 68.4°F20.2°C -5537.2°C - 4.0 mph N6.4 kmh N 6.3 mph10.1 kmh 25.19 in853.0 mb 0.00 in0.0 mm 0.00 in/hr0.0 mm/hr 0.00 in0.0 mm
03:57 AM 67.5°F19.7°C -5537.2°C - 3.0 mph ENE4.8 kmh ENE 4.9 mph7.9 kmh 25.19 in853.0 mb 0.00 in0.0 mm 0.00 in/hr0.0 mm/hr 0.00 in0.0 mm
04:02 AM 67.3°F19.6°C -5537.2°C - 2.0 mph E3.2 kmh E 5.4 mph8.7 kmh 25.19 in853.0 mb 0.00 in0.0 mm 0.00 in/hr0.0 mm/hr 0.00 in0.0 mm
04:07 AM 66.9°F19.4°C -5537.2°C - 3.0 mph NE4.8 kmh NE 5.8 mph9.3 kmh 25.19 in853.0 mb 0.00 in0.0 mm 0.00 in/hr0.0 mm/hr 0.00 in0.0 mm
04:12 AM 68.4°F20.2°C -5537.2°C - 5.0 mph NNE8.0 kmh NNE 7.8 mph12.6 kmh 25.19 in853.0 mb 0.00 in0.0 mm 0.00 in/hr0.0 mm/hr 0.00 in0.0 mm
04:17 AM 68.7°F20.4°C -5537.2°C - 5.0 mph N8.0 kmh N 7.8 mph12.6 kmh 25.19 in853.0 mb 0.00 in0.0 mm 0.00 in/hr0.0 mm/hr 0.00 in0.0 mm
04:22 AM 68.5°F20.3°C -5537.2°C - 4.0 mph N6.4 kmh N 5.8 mph9.3 kmh 25.19 in853.0 mb 0.00 in0.0 mm 0.00 in/hr0.0 mm/hr 0.00 in0.0 mm
04:27 AM 67.8°F19.9°C -5537.2°C - 2.0 mph N3.2 kmh N 3.6 mph5.8 kmh 25.19 in853.0 mb 0.00 in0.0 mm 0.00 in/hr0.0 mm/hr 0.00 in0.0 mm
04:32 AM 66.6°F19.2°C -5537.2°C - 2.0 mph NNE3.2 kmh NNE 5.4 mph8.7 kmh 25.19 in853.0 mb 0.00 in0.0 mm 0.00 in/hr0.0 mm/hr 0.00 in0.0 mm
04:37 AM 66.7°F19.3°C -5537.2°C - 2.0 mph NE3.2 kmh NE 5.4 mph8.7 kmh 25.19 in853.0 mb 0.00 in0.0 mm 0.00 in/hr0.0 mm/hr 0.00 in0.0 mm
04:42 AM 65.7°F18.7°C -5537.2°C - 2.0 mph NE3.2 kmh NE 4.9 mph7.9 kmh 25.19 in853.0 mb 0.00 in0.0 mm 0.00 in/hr0.0 mm/hr 0.00 in0.0 mm
04:47 AM 65.3°F18.5°C -5537.2°C - 2.0 mph NE3.2 kmh NE 4.5 mph7.2 kmh 25.22 in854.0 mb 0.00 in0.0 mm 0.00 in/hr0.0 mm/hr 0.00 in0.0 mm
04:52 AM 65.7°F18.7°C -5537.2°C - 2.0 mph NE3.2 kmh NE 4.9 mph7.9 kmh 25.22 in854.0 mb 0.00 in0.0 mm 0.00 in/hr0.0 mm/hr 0.00 in0.0 mm
04:57 AM 64.6°F18.1°C -5537.2°C - 2.0 mph NE3.2 kmh NE 6.3 mph10.1 kmh 25.22 in854.0 mb 0.00 in0.0 mm 0.00 in/hr0.0 mm/hr 0.00 in0.0 mm
05:02 AM 66.4°F19.1°C -5537.2°C - 3.0 mph NNE4.8 kmh NNE 5.8 mph9.3 kmh 25.22 in854.0 mb 0.00 in0.0 mm 0.00 in/hr0.0 mm/hr 0.00 in0.0 mm
05:07 AM 65.5°F18.6°C -5537.2°C - 3.0 mph N4.8 kmh N 4.9 mph7.9 kmh 25.22 in854.0 mb 0.00 in0.0 mm 0.00 in/hr0.0 mm/hr 0.00 in0.0 mm
05:12 AM 66.4°F19.1°C -5537.2°C - 2.0 mph NNE3.2 kmh NNE 4.9 mph7.9 kmh 25.22 in854.0 mb 0.00 in0.0 mm 0.00 in/hr0.0 mm/hr 0.00 in0.0 mm
05:17 AM 64.9°F18.3°C -5537.2°C - 2.0 mph NNE3.2 kmh NNE 4.9 mph7.9 kmh 25.22 in854.0 mb 0.00 in0.0 mm 0.00 in/hr0.0 mm/hr 0.00 in0.0 mm
05:22 AM 64.6°F18.1°C -5537.2°C - 2.0 mph NE3.2 kmh NE 4.9 mph7.9 kmh 25.22 in854.0 mb 0.00 in0.0 mm 0.00 in/hr0.0 mm/hr 0.00 in0.0 mm
05:27 AM 63.9°F17.7°C -5537.2°C - 2.0 mph NE3.2 kmh NE 4.9 mph7.9 kmh 25.22 in854.0 mb 0.00 in0.0 mm 0.00 in/hr0.0 mm/hr 0.00 in0.0 mm
05:32 AM 64.2°F17.9°C -5537.2°C - 1.0 mph NE1.6 kmh NE 2.7 mph4.3 kmh 25.22 in854.0 mb 0.00 in0.0 mm 0.00 in/hr0.0 mm/hr 0.00 in0.0 mm
05:37 AM 63.9°F17.7°C -5537.2°C - Calm Calm 3.6 mph5.8 kmh 25.22 in854.0 mb 0.00 in0.0 mm 0.00 in/hr0.0 mm/hr 0.00 in0.0 mm
05:42 AM 66.7°F19.3°C -5537.2°C - 3.0 mph N4.8 kmh N 6.7 mph10.8 kmh 25.22 in854.0 mb 0.00 in0.0 mm 0.00 in/hr0.0 mm/hr 0.00 in0.0 mm
05:47 AM 66.4°F19.1°C -5537.2°C - 5.0 mph NNW8.0 kmh NNW 8.3 mph13.4 kmh 25.22 in854.0 mb 0.00 in0.0 mm 0.00 in/hr0.0 mm/hr 0.00 in0.0 mm
05:52 AM 65.1°F18.4°C -5537.2°C - 5.0 mph N8.0 kmh N 7.8 mph12.6 kmh 25.22 in854.0 mb 0.00 in0.0 mm 0.00 in/hr0.0 mm/hr 0.00 in0.0 mm
05:57 AM 64.9°F18.3°C -5537.2°C - 5.0 mph N8.0 kmh N 8.3 mph13.4 kmh 25.22 in854.0 mb 0.00 in0.0 mm 0.00 in/hr0.0 mm/hr 0.00 in0.0 mm
06:02 AM 64.2°F17.9°C -5537.2°C - 5.0 mph NNE8.0 kmh NNE 6.3 mph10.1 kmh 25.22 in854.0 mb 0.00 in0.0 mm 0.00 in/hr0.0 mm/hr 0.00 in0.0 mm
06:07 AM 63.9°F17.7°C -5537.2°C - 4.0 mph NE6.4 kmh NE 6.3 mph10.1 kmh 25.22 in854.0 mb 0.00 in0.0 mm 0.00 in/hr0.0 mm/hr 0.00 in0.0 mm
06:12 AM 63.3°F17.4°C -5537.2°C - 3.0 mph NE4.8 kmh NE 6.3 mph10.1 kmh 25.22 in854.0 mb 0.00 in0.0 mm 0.00 in/hr0.0 mm/hr 0.00 in0.0 mm
06:17 AM 64.2°F17.9°C -5537.2°C - 3.0 mph NE4.8 kmh NE 5.8 mph9.3 kmh 25.25 in855.1 mb 0.00 in0.0 mm 0.00 in/hr0.0 mm/hr 0.00 in0.0 mm
06:22 AM 64.6°F18.1°C -5537.2°C - 2.0 mph NE3.2 kmh NE 3.6 mph5.8 kmh 25.25 in855.1 mb 0.00 in0.0 mm 0.00 in/hr0.0 mm/hr 0.00 in0.0 mm
06:27 AM 64.9°F18.3°C -5537.2°C - 1.0 mph NE1.6 kmh NE 4.0 mph6.4 kmh 25.25 in855.1 mb 0.00 in0.0 mm 0.00 in/hr0.0 mm/hr 0.00 in0.0 mm
06:32 AM 69.1°F20.6°C -5537.2°C - 4.0 mph N6.4 kmh N 10.5 mph16.9 kmh 25.25 in855.1 mb 0.00 in0.0 mm 0.00 in/hr0.0 mm/hr 0.00 in0.0 mm
06:37 AM 70.7°F21.5°C -5537.2°C - 6.0 mph N9.7 kmh N 10.5 mph16.9 kmh 25.25 in855.1 mb 0.00 in0.0 mm 0.00 in/hr0.0 mm/hr 0.00 in0.0 mm
06:42 AM 71.1°F21.7°C -5537.2°C - 7.0 mph NNW11.3 kmh NNW 9.6 mph15.4 kmh 25.25 in855.1 mb 0.00 in0.0 mm 0.00 in/hr0.0 mm/hr 0.00 in0.0 mm
06:47 AM 70.5°F21.4°C -5537.2°C - 7.0 mph N11.3 kmh N 9.6 mph15.4 kmh 25.25 in855.1 mb 0.00 in0.0 mm 0.00 in/hr0.0 mm/hr 0.00 in0.0 mm
06:52 AM 69.4°F20.8°C -5537.2°C - 6.0 mph NNW9.7 kmh NNW 9.2 mph14.8 kmh 25.25 in855.1 mb 0.00 in0.0 mm 0.00 in/hr0.0 mm/hr 0.00 in0.0 mm
06:57 AM 68.9°F20.5°C -5537.2°C - 6.0 mph NNW9.7 kmh NNW 10.5 mph16.9 kmh 25.25 in855.1 mb 0.00 in0.0 mm 0.00 in/hr0.0 mm/hr 0.00 in0.0 mm
07:03 AM 68.4°F20.2°C -5537.2°C - 6.0 mph NNW9.7 kmh NNW 10.1 mph16.3 kmh 25.25 in855.1 mb 0.00 in0.0 mm 0.00 in/hr0.0 mm/hr 0.00 in0.0 mm
07:08 AM 68.2°F20.1°C -5537.2°C - 6.0 mph NNW9.7 kmh NNW 10.1 mph16.3 kmh 25.25 in855.1 mb 0.00 in0.0 mm 0.00 in/hr0.0 mm/hr 0.00 in0.0 mm
07:13 AM 68.2°F20.1°C -5537.2°C - 7.0 mph N11.3 kmh N 11.0 mph17.7 kmh 25.25 in855.1 mb 0.00 in0.0 mm 0.00 in/hr0.0 mm/hr 0.00 in0.0 mm
07:18 AM 69.1°F20.6°C -5537.2°C - 6.0 mph N9.7 kmh N 8.7 mph14.0 kmh 25.25 in855.1 mb 0.00 in0.0 mm 0.00 in/hr0.0 mm/hr 0.00 in0.0 mm
07:23 AM 70.0°F21.1°C -5537.2°C - 5.0 mph N8.0 kmh N 7.4 mph11.9 kmh 25.25 in855.1 mb 0.00 in0.0 mm 0.00 in/hr0.0 mm/hr 0.00 in0.0 mm
07:28 AM 70.3°F21.3°C -5537.2°C - 5.0 mph N8.0 kmh N 8.3 mph13.4 kmh 25.25 in855.1 mb 0.00 in0.0 mm 0.00 in/hr0.0 mm/hr 0.00 in0.0 mm
07:33 AM 70.7°F21.5°C -5537.2°C - 6.0 mph N9.7 kmh N 9.2 mph14.8 kmh 25.25 in855.1 mb 0.00 in0.0 mm 0.00 in/hr0.0 mm/hr 0.00 in0.0 mm
07:38 AM 71.1°F21.7°C -5537.2°C - 5.0 mph N8.0 kmh N 7.4 mph11.9 kmh 25.25 in855.1 mb 0.00 in0.0 mm 0.00 in/hr0.0 mm/hr 0.00 in0.0 mm
07:43 AM 71.4°F21.9°C -5537.2°C - 4.0 mph NNW6.4 kmh NNW 6.9 mph11.1 kmh 25.25 in855.1 mb 0.00 in0.0 mm 0.00 in/hr0.0 mm/hr 0.00 in0.0 mm
07:48 AM 71.1°F21.7°C -5537.2°C - 5.0 mph NNW8.0 kmh NNW 8.7 mph14.0 kmh 25.25 in855.1 mb 0.00 in0.0 mm 0.00 in/hr0.0 mm/hr 0.00 in0.0 mm
07:53 AM 71.1°F21.7°C -5537.2°C - 6.0 mph NNW9.7 kmh NNW 8.7 mph14.0 kmh 25.25 in855.1 mb 0.00 in0.0 mm 0.00 in/hr0.0 mm/hr 0.00 in0.0 mm
07:58 AM 70.5°F21.4°C -5537.2°C - 6.0 mph NNW9.7 kmh NNW 7.8 mph12.6 kmh 25.28 in856.1 mb 0.00 in0.0 mm 0.00 in/hr0.0 mm/hr 0.00 in0.0 mm
08:03 AM 71.8°F22.1°C -5537.2°C - 6.0 mph NNW9.7 kmh NNW 9.6 mph15.4 kmh 25.28 in856.1 mb 0.00 in0.0 mm 0.00 in/hr0.0 mm/hr 0.00 in0.0 mm
08:08 AM 73.2°F22.9°C -5537.2°C - 6.0 mph N9.7 kmh N 11.0 mph17.7 kmh 25.28 in856.1 mb 0.00 in0.0 mm 0.00 in/hr0.0 mm/hr 0.00 in0.0 mm
08:13 AM 73.8°F23.2°C -5537.2°C - 8.0 mph N12.9 kmh N 13.4 mph21.6 kmh 25.28 in856.1 mb 0.00 in0.0 mm 0.00 in/hr0.0 mm/hr 0.00 in0.0 mm
08:18 AM 74.8°F23.8°C -5537.2°C - 10.0 mph N16.1 kmh N 14.3 mph23.0 kmh 25.28 in856.1 mb 0.00 in0.0 mm 0.00 in/hr0.0 mm/hr 0.00 in0.0 mm
08:23 AM 76.1°F24.5°C -5537.2°C - 10.0 mph N16.1 kmh N 14.8 mph23.8 kmh 25.28 in856.1 mb 0.00 in0.0 mm 0.00 in/hr0.0 mm/hr 0.00 in0.0 mm
08:28 AM 76.6°F24.8°C -5537.2°C - 9.0 mph NNE14.5 kmh NNE 15.4 mph24.8 kmh 25.28 in856.1 mb 0.00 in0.0 mm 0.00 in/hr0.0 mm/hr 0.00 in0.0 mm
08:33 AM 77.4°F25.2°C -5537.2°C - 10.0 mph N16.1 kmh N 15.4 mph24.8 kmh 25.28 in856.1 mb 0.00 in0.0 mm 0.00 in/hr0.0 mm/hr 0.00 in0.0 mm
08:38 AM 76.5°F24.7°C -5537.2°C - 10.0 mph N16.1 kmh N 13.4 mph21.6 kmh 25.28 in856.1 mb 0.00 in0.0 mm 0.00 in/hr0.0 mm/hr 0.00 in0.0 mm
08:43 AM 77.0°F25.0°C -5537.2°C - 9.0 mph N14.5 kmh N 13.0 mph20.9 kmh 25.28 in856.1 mb 0.00 in0.0 mm 0.00 in/hr0.0 mm/hr 0.00 in0.0 mm
08:48 AM 77.4°F25.2°C -5537.2°C - 8.0 mph N12.9 kmh N 10.1 mph16.3 kmh 25.28 in856.1 mb 0.00 in0.0 mm 0.00 in/hr0.0 mm/hr 0.00 in0.0 mm
08:53 AM 77.4°F25.2°C -5537.2°C - 7.0 mph N11.3 kmh N 11.2 mph18.0 kmh 25.28 in856.1 mb 0.00 in0.0 mm 0.00 in/hr0.0 mm/hr 0.00 in0.0 mm
08:58 AM 77.4°F25.2°C -5537.2°C - 8.0 mph N12.9 kmh N 11.2 mph18.0 kmh 25.28 in856.1 mb 0.00 in0.0 mm 0.00 in/hr0.0 mm/hr 0.00 in0.0 mm
09:03 AM 77.0°F25.0°C -5537.2°C - 8.0 mph N12.9 kmh N 12.1 mph19.5 kmh 25.28 in856.1 mb 0.00 in0.0 mm 0.00 in/hr0.0 mm/hr 0.00 in0.0 mm
09:08 AM 76.6°F24.8°C -5537.2°C - 8.0 mph N12.9 kmh N 13.9 mph22.4 kmh 25.28 in856.1 mb 0.00 in0.0 mm 0.00 in/hr0.0 mm/hr 0.00 in0.0 mm
09:13 AM 76.8°F24.9°C -5537.2°C - 8.0 mph N12.9 kmh N 11.0 mph17.7 kmh 25.28 in856.1 mb 0.00 in0.0 mm 0.00 in/hr0.0 mm/hr 0.00 in0.0 mm
09:18 AM 77.2°F25.1°C -5537.2°C - 7.0 mph NNW11.3 kmh NNW 11.2 mph18.0 kmh 25.28 in856.1 mb 0.00 in0.0 mm 0.00 in/hr0.0 mm/hr 0.00 in0.0 mm
09:23 AM 78.1°F25.6°C -5537.2°C - 7.0 mph NNW11.3 kmh NNW 13.0 mph20.9 kmh 25.28 in856.1 mb 0.00 in0.0 mm 0.00 in/hr0.0 mm/hr 0.00 in0.0 mm
09:28 AM 78.3°F25.7°C -5537.2°C - 8.0 mph N12.9 kmh N 11.2 mph18.0 kmh 25.28 in856.1 mb 0.00 in0.0 mm 0.00 in/hr0.0 mm/hr 0.00 in0.0 mm
09:33 AM 78.8°F26.0°C -5537.2°C - 8.0 mph N12.9 kmh N 12.5 mph20.1 kmh 25.28 in856.1 mb 0.00 in0.0 mm 0.00 in/hr0.0 mm/hr 0.00 in0.0 mm
09:38 AM 79.2°F26.2°C -5537.2°C - 8.0 mph N12.9 kmh N 11.6 mph18.7 kmh 25.28 in856.1 mb 0.00 in0.0 mm 0.00 in/hr0.0 mm/hr 0.00 in0.0 mm
09:43 AM 80.2°F26.8°C -5537.2°C - 8.0 mph N12.9 kmh N 15.2 mph24.5 kmh 25.28 in856.1 mb 0.00 in0.0 mm 0.00 in/hr0.0 mm/hr 0.00 in0.0 mm
09:48 AM 80.8°F27.1°C -5537.2°C - 8.0 mph N12.9 kmh N 13.4 mph21.6 kmh 25.28 in856.1 mb 0.00 in0.0 mm 0.00 in/hr0.0 mm/hr 0.00 in0.0 mm
09:53 AM 81.3°F27.4°C -5537.2°C - 8.0 mph N12.9 kmh N 12.5 mph20.1 kmh 25.28 in856.1 mb 0.00 in0.0 mm 0.00 in/hr0.0 mm/hr 0.00 in0.0 mm
09:58 AM 81.9°F27.7°C -5537.2°C - 8.0 mph N12.9 kmh N 12.1 mph19.5 kmh 25.28 in856.1 mb 0.00 in0.0 mm 0.00 in/hr0.0 mm/hr 0.00 in0.0 mm
10:03 AM 82.6°F28.1°C -5537.2°C - 7.0 mph N11.3 kmh N 10.5 mph16.9 kmh 25.28 in856.1 mb 0.00 in0.0 mm 0.00 in/hr0.0 mm/hr 0.00 in0.0 mm
10:08 AM 82.8°F28.2°C -5537.2°C - 7.0 mph N11.3 kmh N 12.5 mph20.1 kmh 25.28 in856.1 mb 0.00 in0.0 mm 0.00 in/hr0.0 mm/hr 0.00 in0.0 mm
10:13 AM 83.5°F28.6°C -5537.2°C - 6.0 mph NNW9.7 kmh NNW 8.3 mph13.4 kmh 25.28 in856.1 mb 0.00 in0.0 mm 0.00 in/hr0.0 mm/hr 0.00 in0.0 mm
10:18 AM 83.7°F28.7°C -5537.2°C - 4.0 mph NW6.4 kmh NW 10.1 mph16.3 kmh 25.28 in856.1 mb 0.00 in0.0 mm 0.00 in/hr0.0 mm/hr 0.00 in0.0 mm
10:23 AM 83.8°F28.8°C -5537.2°C - 5.0 mph NW8.0 kmh NW 8.7 mph14.0 kmh 25.28 in856.1 mb 0.00 in0.0 mm 0.00 in/hr0.0 mm/hr 0.00 in0.0 mm
10:28 AM 83.3°F28.5°C -5537.2°C - 6.0 mph NNW9.7 kmh NNW 12.1 mph19.5 kmh 25.28 in856.1 mb 0.00 in0.0 mm 0.00 in/hr0.0 mm/hr 0.00 in0.0 mm
10:33 AM 84.2°F29.0°C -5537.2°C - 7.0 mph NNW11.3 kmh NNW 13.0 mph20.9 kmh 25.28 in856.1 mb 0.00 in0.0 mm 0.00 in/hr0.0 mm/hr 0.00 in0.0 mm
10:38 AM 83.7°F28.7°C -5537.2°C - 7.0 mph NNW11.3 kmh NNW 11.0 mph17.7 kmh 25.28 in856.1 mb 0.00 in0.0 mm 0.00 in/hr0.0 mm/hr 0.00 in0.0 mm
10:43 AM 85.3°F29.6°C -5537.2°C - 6.0 mph NW9.7 kmh NW 11.6 mph18.7 kmh 25.28 in856.1 mb 0.00 in0.0 mm 0.00 in/hr0.0 mm/hr 0.00 in0.0 mm
10:48 AM 84.6°F29.2°C -5537.2°C - 6.0 mph NW9.7 kmh NW 10.5 mph16.9 kmh 25.28 in856.1 mb 0.00 in0.0 mm 0.00 in/hr0.0 mm/hr 0.00 in0.0 mm
10:53 AM 85.1°F29.5°C -5537.2°C - 6.0 mph NNW9.7 kmh NNW 11.6 mph18.7 kmh 25.28 in856.1 mb 0.00 in0.0 mm 0.00 in/hr0.0 mm/hr 0.00 in0.0 mm
10:58 AM 86.4°F30.2°C -5537.2°C - 6.0 mph N9.7 kmh N 7.8 mph12.6 kmh 25.28 in856.1 mb 0.00 in0.0 mm 0.00 in/hr0.0 mm/hr 0.00 in0.0 mm
11:03 AM 86.0°F30.0°C -5537.2°C - 5.0 mph NNW8.0 kmh NNW 9.2 mph14.8 kmh 25.28 in856.1 mb 0.00 in0.0 mm 0.00 in/hr0.0 mm/hr 0.00 in0.0 mm
11:08 AM 86.4°F30.2°C -5537.2°C - 6.0 mph NW9.7 kmh NW 12.5 mph20.1 kmh 25.28 in856.1 mb 0.00 in0.0 mm 0.00 in/hr0.0 mm/hr 0.00 in0.0 mm
11:13 AM 87.6°F30.9°C -5537.2°C - 5.0 mph NW8.0 kmh NW 8.7 mph14.0 kmh 25.28 in856.1 mb 0.00 in0.0 mm 0.00 in/hr0.0 mm/hr 0.00 in0.0 mm
11:18 AM 88.0°F31.1°C -5537.2°C - 5.0 mph NW8.0 kmh NW 7.8 mph12.6 kmh 25.28 in856.1 mb 0.00 in0.0 mm 0.00 in/hr0.0 mm/hr 0.00 in0.0 mm
11:23 AM 87.6°F30.9°C -5537.2°C - 4.0 mph NNW6.4 kmh NNW 7.4 mph11.9 kmh 25.28 in856.1 mb 0.00 in0.0 mm 0.00 in/hr0.0 mm/hr 0.00 in0.0 mm
11:28 AM 88.9°F31.6°C -5537.2°C - 4.0 mph N6.4 kmh N 8.3 mph13.4 kmh 25.28 in856.1 mb 0.00 in0.0 mm 0.00 in/hr0.0 mm/hr 0.00 in0.0 mm
11:33 AM 88.7°F31.5°C -5537.2°C - 4.0 mph NNW6.4 kmh NNW 9.2 mph14.8 kmh 25.28 in856.1 mb 0.00 in0.0 mm 0.00 in/hr0.0 mm/hr 0.00 in0.0 mm
11:38 AM 89.1°F31.7°C -5537.2°C - 4.0 mph WNW6.4 kmh WNW 6.7 mph10.8 kmh 25.28 in856.1 mb 0.00 in0.0 mm 0.00 in/hr0.0 mm/hr 0.00 in0.0 mm
11:43 AM 89.1°F31.7°C -5537.2°C - 5.0 mph W8.0 kmh W 9.6 mph15.4 kmh 25.25 in855.1 mb 0.00 in0.0 mm 0.00 in/hr0.0 mm/hr 0.00 in0.0 mm
11:48 AM 89.8°F32.1°C -5537.2°C - 5.0 mph WNW8.0 kmh WNW 8.7 mph14.0 kmh 25.25 in855.1 mb 0.00 in0.0 mm 0.00 in/hr0.0 mm/hr 0.00 in0.0 mm
11:53 AM 90.9°F32.7°C -5537.2°C - 4.0 mph WNW6.4 kmh WNW 7.4 mph11.9 kmh 25.25 in855.1 mb 0.00 in0.0 mm 0.00 in/hr0.0 mm/hr 0.00 in0.0 mm
11:58 AM 90.0°F32.2°C -5537.2°C - 4.0 mph NW6.4 kmh NW 7.4 mph11.9 kmh 25.25 in855.1 mb 0.00 in0.0 mm 0.00 in/hr0.0 mm/hr 0.00 in0.0 mm
12:03 PM 90.9°F32.7°C -5537.2°C - 4.0 mph NW6.4 kmh NW 6.9 mph11.1 kmh 25.25 in855.1 mb 0.00 in0.0 mm 0.00 in/hr0.0 mm/hr 0.00 in0.0 mm
12:08 PM 91.2°F32.9°C -5537.2°C - 4.0 mph NW6.4 kmh NW 6.9 mph11.1 kmh 25.25 in855.1 mb 0.00 in0.0 mm 0.00 in/hr0.0 mm/hr 0.00 in0.0 mm
12:13 PM 91.0°F32.8°C -5537.2°C - 4.0 mph NNW6.4 kmh NNW 9.2 mph14.8 kmh 25.25 in855.1 mb 0.00 in0.0 mm 0.00 in/hr0.0 mm/hr 0.00 in0.0 mm
12:18 PM 92.1°F33.4°C -5537.2°C - 5.0 mph WNW8.0 kmh WNW 11.6 mph18.7 kmh 25.25 in855.1 mb 0.00 in0.0 mm 0.00 in/hr0.0 mm/hr 0.00 in0.0 mm
12:23 PM 92.1°F33.4°C -5537.2°C - 6.0 mph WSW9.7 kmh WSW 12.5 mph20.1 kmh 25.25 in855.1 mb 0.00 in0.0 mm 0.00 in/hr0.0 mm/hr 0.00 in0.0 mm
12:28 PM 93.2°F34.0°C -5537.2°C - 5.0 mph WNW8.0 kmh WNW 8.7 mph14.0 kmh 25.25 in855.1 mb 0.00 in0.0 mm 0.00 in/hr0.0 mm/hr 0.00 in0.0 mm
12:33 PM 92.5°F33.6°C -5537.2°C - 4.0 mph NW6.4 kmh NW 8.7 mph14.0 kmh 25.25 in855.1 mb 0.00 in0.0 mm 0.00 in/hr0.0 mm/hr 0.00 in0.0 mm
12:38 PM 93.0°F33.9°C -5537.2°C - 4.0 mph NNW6.4 kmh NNW 6.7 mph10.8 kmh 25.25 in855.1 mb 0.00 in0.0 mm 0.00 in/hr0.0 mm/hr 0.00 in0.0 mm
12:43 PM 93.0°F33.9°C -5537.2°C - 3.0 mph N4.8 kmh N 6.9 mph11.1 kmh 25.25 in855.1 mb 0.00 in0.0 mm 0.00 in/hr0.0 mm/hr 0.00 in0.0 mm
12:48 PM 93.9°F34.4°C -5537.2°C - 4.0 mph NW6.4 kmh NW 8.3 mph13.4 kmh 25.25 in855.1 mb 0.00 in0.0 mm 0.00 in/hr0.0 mm/hr 0.00 in0.0 mm
12:53 PM 94.6°F34.8°C -5537.2°C - 4.0 mph WNW6.4 kmh WNW 9.6 mph15.4 kmh 25.25 in855.1 mb 0.00 in0.0 mm 0.00 in/hr0.0 mm/hr 0.00 in0.0 mm
12:58 PM 94.3°F34.6°C -5537.2°C - 4.0 mph W6.4 kmh W 9.6 mph15.4 kmh 25.25 in855.1 mb 0.00 in0.0 mm 0.00 in/hr0.0 mm/hr 0.00 in0.0 mm
01:03 PM 94.5°F34.7°C -5537.2°C - 6.0 mph WSW9.7 kmh WSW 12.1 mph19.5 kmh 25.25 in855.1 mb 0.00 in0.0 mm 0.00 in/hr0.0 mm/hr 0.00 in0.0 mm
01:08 PM 93.7°F34.3°C -5537.2°C - 6.0 mph WSW9.7 kmh WSW 11.0 mph17.7 kmh 25.25 in855.1 mb 0.00 in0.0 mm 0.00 in/hr0.0 mm/hr 0.00 in0.0 mm
01:13 PM 94.6°F34.8°C -5537.2°C - 5.0 mph WSW8.0 kmh WSW 11.6 mph18.7 kmh 25.25 in855.1 mb 0.00 in0.0 mm 0.00 in/hr0.0 mm/hr 0.00 in0.0 mm
01:18 PM 94.6°F34.8°C -5537.2°C - 5.0 mph WSW8.0 kmh WSW 11.6 mph18.7 kmh 25.25 in855.1 mb 0.00 in0.0 mm 0.00 in/hr0.0 mm/hr 0.00 in0.0 mm
01:23 PM 94.8°F34.9°C -5537.2°C - 7.0 mph SW11.3 kmh SW 11.2 mph18.0 kmh 25.25 in855.1 mb 0.00 in0.0 mm 0.00 in/hr0.0 mm/hr 0.00 in0.0 mm
01:28 PM 94.3°F34.6°C -5537.2°C - 7.0 mph SW11.3 kmh SW 10.5 mph16.9 kmh 25.22 in854.0 mb 0.00 in0.0 mm 0.00 in/hr0.0 mm/hr 0.00 in0.0 mm
01:33 PM 95.4°F35.2°C -5537.2°C - 6.0 mph SW9.7 kmh SW 10.5 mph16.9 kmh 25.22 in854.0 mb 0.00 in0.0 mm 0.00 in/hr0.0 mm/hr 0.00 in0.0 mm
01:38 PM 95.4°F35.2°C -5537.2°C - 6.0 mph S9.7 kmh S 10.5 mph16.9 kmh 25.22 in854.0 mb 0.00 in0.0 mm 0.00 in/hr0.0 mm/hr 0.00 in0.0 mm
01:43 PM 95.4°F35.2°C -5537.2°C - 5.0 mph SW8.0 kmh SW 8.3 mph13.4 kmh 25.22 in854.0 mb 0.00 in0.0 mm 0.00 in/hr0.0 mm/hr 0.00 in0.0 mm
01:48 PM 95.4°F35.2°C -5537.2°C - 6.0 mph WSW9.7 kmh WSW 13.0 mph20.9 kmh 25.22 in854.0 mb 0.00 in0.0 mm 0.00 in/hr0.0 mm/hr 0.00 in0.0 mm
01:53 PM 95.2°F35.1°C -5537.2°C - 8.0 mph SSW12.9 kmh SSW 11.6 mph18.7 kmh 25.22 in854.0 mb 0.00 in0.0 mm 0.00 in/hr0.0 mm/hr 0.00 in0.0 mm
01:58 PM 96.4°F35.8°C -5537.2°C - 8.0 mph S12.9 kmh S 12.5 mph20.1 kmh 25.22 in854.0 mb 0.00 in0.0 mm 0.00 in/hr0.0 mm/hr 0.00 in0.0 mm
02:03 PM 95.9°F35.5°C -5537.2°C - 8.0 mph SSW12.9 kmh SSW 15.9 mph25.6 kmh 25.22 in854.0 mb 0.00 in0.0 mm 0.00 in/hr0.0 mm/hr 0.00 in0.0 mm
02:08 PM 96.1°F35.6°C -5537.2°C - 9.0 mph S14.5 kmh S 15.2 mph24.5 kmh 25.22 in854.0 mb 0.00 in0.0 mm 0.00 in/hr0.0 mm/hr 0.00 in0.0 mm
02:13 PM 97.2°F36.2°C -5537.2°C - 8.0 mph S12.9 kmh S 10.5 mph16.9 kmh 25.22 in854.0 mb 0.00 in0.0 mm 0.00 in/hr0.0 mm/hr 0.00 in0.0 mm
02:18 PM 97.2°F36.2°C -5537.2°C - 6.0 mph S9.7 kmh S 11.0 mph17.7 kmh 25.22 in854.0 mb 0.00 in0.0 mm 0.00 in/hr0.0 mm/hr 0.00 in0.0 mm
02:23 PM 96.3°F35.7°C -5537.2°C - 7.0 mph SSW11.3 kmh SSW 12.1 mph19.5 kmh 25.22 in854.0 mb 0.00 in0.0 mm 0.00 in/hr0.0 mm/hr 0.00 in0.0 mm
02:28 PM 96.4°F35.8°C -5537.2°C - 8.0 mph SSW12.9 kmh SSW 14.8 mph23.8 kmh 25.22 in854.0 mb 0.00 in0.0 mm 0.00 in/hr0.0 mm/hr 0.00 in0.0 mm
02:34 PM 97.3°F36.3°C -5537.2°C - 8.0 mph S12.9 kmh S 11.2 mph18.0 kmh 25.22 in854.0 mb 0.00 in0.0 mm 0.00 in/hr0.0 mm/hr 0.00 in0.0 mm
02:39 PM 96.6°F35.9°C -5537.2°C - 8.0 mph S12.9 kmh S 13.4 mph21.6 kmh 25.22 in854.0 mb 0.00 in0.0 mm 0.00 in/hr0.0 mm/hr 0.00 in0.0 mm
02:44 PM 97.3°F36.3°C -5537.2°C - 8.0 mph S12.9 kmh S 12.5 mph20.1 kmh 25.22 in854.0 mb 0.00 in0.0 mm 0.00 in/hr0.0 mm/hr 0.00 in0.0 mm
02:49 PM 96.6°F35.9°C -5537.2°C - 7.0 mph S11.3 kmh S 11.6 mph18.7 kmh 25.22 in854.0 mb 0.00 in0.0 mm 0.00 in/hr0.0 mm/hr 0.00 in0.0 mm
02:54 PM 97.2°F36.2°C -5537.2°C - 8.0 mph S12.9 kmh S 12.5 mph20.1 kmh 25.22 in854.0 mb 0.00 in0.0 mm 0.00 in/hr0.0 mm/hr 0.00 in0.0 mm
02:59 PM 97.0°F36.1°C -5537.2°C - 8.0 mph S12.9 kmh S 12.5 mph20.1 kmh 25.22 in854.0 mb 0.00 in0.0 mm 0.00 in/hr0.0 mm/hr 0.00 in0.0 mm
03:04 PM 97.2°F36.2°C -5537.2°C - 7.0 mph S11.3 kmh S 9.6 mph15.4 kmh 25.22 in854.0 mb 0.00 in0.0 mm 0.00 in/hr0.0 mm/hr 0.00 in0.0 mm
03:09 PM 97.2°F36.2°C -5537.2°C - 7.0 mph SSW11.3 kmh SSW 13.0 mph20.9 kmh 25.22 in854.0 mb 0.00 in0.0 mm 0.00 in/hr0.0 mm/hr 0.00 in0.0 mm
03:14 PM 97.9°F36.6°C -5537.2°C - 8.0 mph S12.9 kmh S 11.2 mph18.0 kmh 25.19 in853.0 mb 0.00 in0.0 mm 0.00 in/hr0.0 mm/hr 0.00 in0.0 mm
03:19 PM 98.1°F36.7°C -5537.2°C - 8.0 mph S12.9 kmh S 13.9 mph22.4 kmh 25.19 in853.0 mb 0.00 in0.0 mm 0.00 in/hr0.0 mm/hr 0.00 in0.0 mm
03:24 PM 98.1°F36.7°C -5537.2°C - 8.0 mph S12.9 kmh S 11.0 mph17.7 kmh 25.19 in853.0 mb 0.00 in0.0 mm 0.00 in/hr0.0 mm/hr 0.00 in0.0 mm
03:29 PM 98.8°F37.1°C -5537.2°C - 8.0 mph S12.9 kmh S 13.9 mph22.4 kmh 25.19 in853.0 mb 0.00 in0.0 mm 0.00 in/hr0.0 mm/hr 0.00 in0.0 mm
03:34 PM 97.9°F36.6°C -5537.2°C - 8.0 mph S12.9 kmh S 12.1 mph19.5 kmh 25.19 in853.0 mb 0.00 in0.0 mm 0.00 in/hr0.0 mm/hr 0.00 in0.0 mm
03:39 PM 98.8°F37.1°C -5537.2°C - 8.0 mph S12.9 kmh S 11.0 mph17.7 kmh 25.19 in853.0 mb 0.00 in0.0 mm 0.00 in/hr0.0 mm/hr 0.00 in0.0 mm
03:44 PM 97.9°F36.6°C -5537.2°C - 7.0 mph S11.3 kmh S 12.1 mph19.5 kmh 25.19 in853.0 mb 0.00 in0.0 mm 0.00 in/hr0.0 mm/hr 0.00 in0.0 mm
03:49 PM 98.2°F36.8°C -5537.2°C - 7.0 mph S11.3 kmh S 11.2 mph18.0 kmh 25.19 in853.0 mb 0.00 in0.0 mm 0.00 in/hr0.0 mm/hr 0.00 in0.0 mm
03:54 PM 98.1°F36.7°C -5537.2°C - 8.0 mph SSE12.9 kmh SSE 13.4 mph21.6 kmh 25.19 in853.0 mb 0.00 in0.0 mm 0.00 in/hr0.0 mm/hr 0.00 in0.0 mm
03:59 PM 98.4°F36.9°C -5537.2°C - 8.0 mph SSE12.9 kmh SSE 11.6 mph18.7 kmh 25.19 in853.0 mb 0.00 in0.0 mm 0.00 in/hr0.0 mm/hr 0.00 in0.0 mm
04:04 PM 98.4°F36.9°C -5537.2°C - 8.0 mph S12.9 kmh S 13.0 mph20.9 kmh 25.19 in853.0 mb 0.00 in0.0 mm 0.00 in/hr0.0 mm/hr 0.00 in0.0 mm
04:09 PM 98.4°F36.9°C -5537.2°C - 8.0 mph SSW12.9 kmh SSW 11.6 mph18.7 kmh 25.19 in853.0 mb 0.00 in0.0 mm 0.00 in/hr0.0 mm/hr 0.00 in0.0 mm
04:14 PM 99.3°F37.4°C -5537.2°C - 7.0 mph SSW11.3 kmh SSW 11.6 mph18.7 kmh 25.19 in853.0 mb 0.00 in0.0 mm 0.00 in/hr0.0 mm/hr 0.00 in0.0 mm
04:19 PM 99.3°F37.4°C -5537.2°C - 7.0 mph S11.3 kmh S 11.6 mph18.7 kmh 25.19 in853.0 mb 0.00 in0.0 mm 0.00 in/hr0.0 mm/hr 0.00 in0.0 mm
04:24 PM 99.0°F37.2°C -5537.2°C - 7.0 mph S11.3 kmh S 10.5 mph16.9 kmh 25.19 in853.0 mb 0.00 in0.0 mm 0.00 in/hr0.0 mm/hr 0.00 in0.0 mm
04:29 PM 99.0°F37.2°C -5537.2°C - 7.0 mph S11.3 kmh S 12.1 mph19.5 kmh 25.19 in853.0 mb 0.00 in0.0 mm 0.00 in/hr0.0 mm/hr 0.00 in0.0 mm
04:34 PM 99.0°F37.2°C -5537.2°C - 7.0 mph S11.3 kmh S 11.0 mph17.7 kmh 25.19 in853.0 mb 0.00 in0.0 mm 0.00 in/hr0.0 mm/hr 0.00 in0.0 mm
04:39 PM 99.0°F37.2°C -5537.2°C - 7.0 mph SSE11.3 kmh SSE 11.0 mph17.7 kmh 25.19 in853.0 mb 0.00 in0.0 mm 0.00 in/hr0.0 mm/hr 0.00 in0.0 mm
04:44 PM 99.1°F37.3°C -5537.2°C - 8.0 mph SSE12.9 kmh SSE 12.5 mph20.1 kmh 25.16 in852.0 mb 0.00 in0.0 mm 0.00 in/hr0.0 mm/hr 0.00 in0.0 mm
04:49 PM 98.6°F37.0°C -5537.2°C - 8.0 mph S12.9 kmh S 12.1 mph19.5 kmh 25.16 in852.0 mb 0.00 in0.0 mm 0.00 in/hr0.0 mm/hr 0.00 in0.0 mm
04:54 PM 99.0°F37.2°C -5537.2°C - 8.0 mph S12.9 kmh S 12.1 mph19.5 kmh 25.16 in852.0 mb 0.00 in0.0 mm 0.00 in/hr0.0 mm/hr 0.00 in0.0 mm
04:59 PM 99.0°F37.2°C -5537.2°C - 8.0 mph S12.9 kmh S 11.6 mph18.7 kmh 25.16 in852.0 mb 0.00 in0.0 mm 0.00 in/hr0.0 mm/hr 0.00 in0.0 mm
05:04 PM 99.3°F37.4°C -5537.2°C - 7.0 mph S11.3 kmh S 10.5 mph16.9 kmh 25.16 in852.0 mb 0.00 in0.0 mm 0.00 in/hr0.0 mm/hr 0.00 in0.0 mm
05:09 PM 99.5°F37.5°C -5537.2°C - 6.0 mph S9.7 kmh S 11.0 mph17.7 kmh 25.16 in852.0 mb 0.00 in0.0 mm 0.00 in/hr0.0 mm/hr 0.00 in0.0 mm
05:14 PM 99.0°F37.2°C -5537.2°C - 7.0 mph S11.3 kmh S 12.5 mph20.1 kmh 25.16 in852.0 mb 0.00 in0.0 mm 0.00 in/hr0.0 mm/hr 0.00 in0.0 mm
05:19 PM 99.5°F37.5°C -5537.2°C - 8.0 mph S12.9 kmh S 11.6 mph18.7 kmh 25.16 in852.0 mb 0.00 in0.0 mm 0.00 in/hr0.0 mm/hr 0.00 in0.0 mm
05:24 PM 99.3°F37.4°C -5537.2°C - 8.0 mph S12.9 kmh S 10.5 mph16.9 kmh 25.16 in852.0 mb 0.00 in0.0 mm 0.00 in/hr0.0 mm/hr 0.00 in0.0 mm
05:29 PM 99.5°F37.5°C -5537.2°C - 7.0 mph SSE11.3 kmh SSE 11.2 mph18.0 kmh 25.16 in852.0 mb 0.00 in0.0 mm 0.00 in/hr0.0 mm/hr 0.00 in0.0 mm
05:34 PM 99.3°F37.4°C -5537.2°C - 7.0 mph SSE11.3 kmh SSE 10.1 mph16.3 kmh 25.16 in852.0 mb 0.00 in0.0 mm 0.00 in/hr0.0 mm/hr 0.00 in0.0 mm
05:39 PM 99.1°F37.3°C -5537.2°C - 7.0 mph SSE11.3 kmh SSE 9.2 mph14.8 kmh 25.16 in852.0 mb 0.00 in0.0 mm 0.00 in/hr0.0 mm/hr 0.00 in0.0 mm
05:44 PM 99.3°F37.4°C -5537.2°C - 7.0 mph S11.3 kmh S 11.0 mph17.7 kmh 25.16 in852.0 mb 0.00 in0.0 mm 0.00 in/hr0.0 mm/hr 0.00 in0.0 mm
05:49 PM 99.1°F37.3°C -5537.2°C - 7.0 mph S11.3 kmh S 8.7 mph14.0 kmh 25.16 in852.0 mb 0.00 in0.0 mm 0.00 in/hr0.0 mm/hr 0.00 in0.0 mm
05:54 PM 99.1°F37.3°C -5537.2°C - 7.0 mph S11.3 kmh S 11.0 mph17.7 kmh 25.16 in852.0 mb 0.00 in0.0 mm 0.00 in/hr0.0 mm/hr 0.00 in0.0 mm
05:59 PM 99.1°F37.3°C -5537.2°C - 8.0 mph S12.9 kmh S 10.5 mph16.9 kmh 25.16 in852.0 mb 0.00 in0.0 mm 0.00 in/hr0.0 mm/hr 0.00 in0.0 mm
06:04 PM 99.1°F37.3°C -5537.2°C - 7.0 mph S11.3 kmh S 10.1 mph16.3 kmh 25.16 in852.0 mb 0.00 in0.0 mm 0.00 in/hr0.0 mm/hr 0.00 in0.0 mm
06:09 PM 99.0°F37.2°C -5537.2°C - 7.0 mph S11.3 kmh S 9.6 mph15.4 kmh 25.16 in852.0 mb 0.00 in0.0 mm 0.00 in/hr0.0 mm/hr 0.00 in0.0 mm
06:14 PM 99.1°F37.3°C -5537.2°C - 6.0 mph S9.7 kmh S 9.2 mph14.8 kmh 25.16 in852.0 mb 0.00 in0.0 mm 0.00 in/hr0.0 mm/hr 0.00 in0.0 mm
06:19 PM 99.3°F37.4°C -5537.2°C - 6.0 mph S9.7 kmh S 8.7 mph14.0 kmh 25.16 in852.0 mb 0.00 in0.0 mm 0.00 in/hr0.0 mm/hr 0.00 in0.0 mm
06:24 PM 99.3°F37.4°C -5537.2°C - 6.0 mph S9.7 kmh S 7.8 mph12.6 kmh 25.16 in852.0 mb 0.00 in0.0 mm 0.00 in/hr0.0 mm/hr 0.00 in0.0 mm
06:29 PM 99.0°F37.2°C -5537.2°C - 6.0 mph S9.7 kmh S 7.8 mph12.6 kmh 25.13 in851.0 mb 0.00 in0.0 mm 0.00 in/hr0.0 mm/hr 0.00 in0.0 mm
06:34 PM 98.8°F37.1°C -5537.2°C - 6.0 mph S9.7 kmh S 9.2 mph14.8 kmh 25.13 in851.0 mb 0.00 in0.0 mm 0.00 in/hr0.0 mm/hr 0.00 in0.0 mm
06:39 PM 98.8°F37.1°C -5537.2°C - 6.0 mph S9.7 kmh S 8.7 mph14.0 kmh 25.13 in851.0 mb 0.00 in0.0 mm 0.00 in/hr0.0 mm/hr 0.00 in0.0 mm
06:44 PM 98.8°F37.1°C -5537.2°C - 6.0 mph S9.7 kmh S 9.6 mph15.4 kmh 25.13 in851.0 mb 0.00 in0.0 mm 0.00 in/hr0.0 mm/hr 0.00 in0.0 mm
06:49 PM 98.8°F37.1°C -5537.2°C - 7.0 mph S11.3 kmh S 9.2 mph14.8 kmh 25.13 in851.0 mb 0.00 in0.0 mm 0.00 in/hr0.0 mm/hr 0.00 in0.0 mm
06:54 PM 98.8°F37.1°C -5537.2°C - 7.0 mph S11.3 kmh S 9.6 mph15.4 kmh 25.13 in851.0 mb 0.00 in0.0 mm 0.00 in/hr0.0 mm/hr 0.00 in0.0 mm
07:00 PM 98.4°F36.9°C -5537.2°C - 6.0 mph S9.7 kmh S 9.2 mph14.8 kmh 25.13 in851.0 mb 0.00 in0.0 mm 0.00 in/hr0.0 mm/hr 0.00 in0.0 mm
07:05 PM 98.6°F37.0°C -5537.2°C - 6.0 mph S9.7 kmh S 7.8 mph12.6 kmh 25.13 in851.0 mb 0.00 in0.0 mm 0.00 in/hr0.0 mm/hr 0.00 in0.0 mm
07:10 PM 98.4°F36.9°C -5537.2°C - 5.0 mph S8.0 kmh S 6.9 mph11.1 kmh 25.13 in851.0 mb 0.00 in0.0 mm 0.00 in/hr0.0 mm/hr 0.00 in0.0 mm
07:15 PM 98.1°F36.7°C -5537.2°C - 5.0 mph S8.0 kmh S 7.8 mph12.6 kmh 25.13 in851.0 mb 0.00 in0.0 mm 0.00 in/hr0.0 mm/hr 0.00 in0.0 mm
07:20 PM 97.9°F36.6°C -5537.2°C - 5.0 mph S8.0 kmh S 7.8 mph12.6 kmh 25.13 in851.0 mb 0.00 in0.0 mm 0.00 in/hr0.0 mm/hr 0.00 in0.0 mm
07:25 PM 97.7°F36.5°C -5537.2°C - 5.0 mph S8.0 kmh S 6.9 mph11.1 kmh 25.13 in851.0 mb 0.00 in0.0 mm 0.00 in/hr0.0 mm/hr 0.00 in0.0 mm
07:30 PM 97.3°F36.3°C -5537.2°C - 5.0 mph S8.0 kmh S 6.7 mph10.8 kmh 25.13 in851.0 mb 0.00 in0.0 mm 0.00 in/hr0.0 mm/hr 0.00 in0.0 mm
07:35 PM 97.0°F36.1°C -5537.2°C - 4.0 mph S6.4 kmh S 6.3 mph10.1 kmh 25.13 in851.0 mb 0.00 in0.0 mm 0.00 in/hr0.0 mm/hr 0.00 in0.0 mm
07:40 PM 96.6°F35.9°C -5537.2°C - 4.0 mph S6.4 kmh S 6.7 mph10.8 kmh 25.13 in851.0 mb 0.00 in0.0 mm 0.00 in/hr0.0 mm/hr 0.00 in0.0 mm
07:45 PM 96.1°F35.6°C -5537.2°C - 5.0 mph S8.0 kmh S 6.9 mph11.1 kmh 25.13 in851.0 mb 0.00 in0.0 mm 0.00 in/hr0.0 mm/hr 0.00 in0.0 mm
07:50 PM 95.5°F35.3°C -5537.2°C - 4.0 mph S6.4 kmh S 5.8 mph9.3 kmh 25.13 in851.0 mb 0.00 in0.0 mm 0.00 in/hr0.0 mm/hr 0.00 in0.0 mm
07:55 PM 95.5°F35.3°C -5537.2°C - 3.0 mph S4.8 kmh S 4.9 mph7.9 kmh 25.13 in851.0 mb 0.00 in0.0 mm 0.00 in/hr0.0 mm/hr 0.00 in0.0 mm
08:00 PM 95.4°F35.2°C -5537.2°C - 3.0 mph S4.8 kmh S 4.5 mph7.2 kmh 25.13 in851.0 mb 0.00 in0.0 mm 0.00 in/hr0.0 mm/hr 0.00 in0.0 mm
08:05 PM 95.0°F35.0°C -5537.2°C - 3.0 mph S4.8 kmh S 3.6 mph5.8 kmh 25.13 in851.0 mb 0.00 in0.0 mm 0.00 in/hr0.0 mm/hr 0.00 in0.0 mm
08:10 PM 94.3°F34.6°C -5537.2°C - 2.0 mph S3.2 kmh S 3.1 mph5.0 kmh 25.13 in851.0 mb 0.00 in0.0 mm 0.00 in/hr0.0 mm/hr 0.00 in0.0 mm
08:15 PM 93.4°F34.1°C -5537.2°C - Calm Calm 3.1 mph5.0 kmh 25.13 in851.0 mb 0.00 in0.0 mm 0.00 in/hr0.0 mm/hr 0.00 in0.0 mm
08:20 PM 92.5°F33.6°C -5537.2°C - Calm Calm 2.7 mph4.3 kmh 25.13 in851.0 mb 0.00 in0.0 mm 0.00 in/hr0.0 mm/hr 0.00 in0.0 mm
08:25 PM 91.8°F33.2°C -5537.2°C - Calm Calm -- 25.13 in851.0 mb 0.00 in0.0 mm 0.00 in/hr0.0 mm/hr 0.00 in0.0 mm
08:30 PM 91.0°F32.8°C -5537.2°C - Calm Calm 3.6 mph5.8 kmh 25.13 in851.0 mb 0.00 in0.0 mm 0.00 in/hr0.0 mm/hr 0.00 in0.0 mm
08:35 PM 90.7°F32.6°C -5537.2°C - Calm Calm 2.7 mph4.3 kmh 25.13 in851.0 mb 0.00 in0.0 mm 0.00 in/hr0.0 mm/hr 0.00 in0.0 mm
08:39 PM 90.0°F32.2°C -5537.2°C - Calm Calm -- 25.13 in851.0 mb 0.00 in0.0 mm 0.00 in/hr0.0 mm/hr 0.00 in0.0 mm
08:44 PM 89.2°F31.8°C -5537.2°C - Calm Calm 2.7 mph4.3 kmh 25.13 in851.0 mb 0.00 in0.0 mm 0.00 in/hr0.0 mm/hr 0.00 in0.0 mm
08:49 PM 88.9°F31.6°C -5537.2°C - Calm Calm 2.7 mph4.3 kmh 25.13 in851.0 mb 0.00 in0.0 mm 0.00 in/hr0.0 mm/hr 0.00 in0.0 mm
08:54 PM 88.3°F31.3°C -5537.2°C - Calm Calm -- 25.13 in851.0 mb 0.00 in0.0 mm 0.00 in/hr0.0 mm/hr 0.00 in0.0 mm
08:59 PM 88.3°F31.3°C -5537.2°C - Calm Calm 3.1 mph5.0 kmh 25.13 in851.0 mb 0.00 in0.0 mm 0.00 in/hr0.0 mm/hr 0.00 in0.0 mm
09:04 PM 87.8°F31.0°C -5537.2°C - Calm Calm -- 25.13 in851.0 mb 0.00 in0.0 mm 0.00 in/hr0.0 mm/hr 0.00 in0.0 mm
09:09 PM 87.8°F31.0°C -5537.2°C - Calm Calm 2.7 mph4.3 kmh 25.13 in851.0 mb 0.00 in0.0 mm 0.00 in/hr0.0 mm/hr 0.00 in0.0 mm
09:15 PM 87.1°F30.6°C -5537.2°C - Calm Calm 3.1 mph5.0 kmh 25.13 in851.0 mb 0.00 in0.0 mm 0.00 in/hr0.0 mm/hr 0.00 in0.0 mm
09:20 PM 86.5°F30.3°C -5537.2°C - 1.0 mph SE1.6 kmh SE 4.5 mph7.2 kmh 25.13 in851.0 mb 0.00 in0.0 mm 0.00 in/hr0.0 mm/hr 0.00 in0.0 mm
09:25 PM 87.1°F30.6°C -5537.2°C - 2.0 mph SSE3.2 kmh SSE 5.4 mph8.7 kmh 25.13 in851.0 mb 0.00 in0.0 mm 0.00 in/hr0.0 mm/hr 0.00 in0.0 mm
09:30 PM 87.8°F31.0°C -5537.2°C - 3.0 mph S4.8 kmh S 5.4 mph8.7 kmh 25.13 in851.0 mb 0.00 in0.0 mm 0.00 in/hr0.0 mm/hr 0.00 in0.0 mm
09:35 PM 87.4°F30.8°C -5537.2°C - 2.0 mph S3.2 kmh S 3.6 mph5.8 kmh 25.13 in851.0 mb 0.00 in0.0 mm 0.00 in/hr0.0 mm/hr 0.00 in0.0 mm
09:40 PM 88.0°F31.1°C -5537.2°C - 2.0 mph SSE3.2 kmh SSE 6.3 mph10.1 kmh 25.13 in851.0 mb 0.00 in0.0 mm 0.00 in/hr0.0 mm/hr 0.00 in0.0 mm
09:45 PM 88.2°F31.2°C -5537.2°C - 3.0 mph SSE4.8 kmh SSE 4.9 mph7.9 kmh 25.16 in852.0 mb 0.00 in0.0 mm 0.00 in/hr0.0 mm/hr 0.00 in0.0 mm
09:50 PM 88.0°F31.1°C -5537.2°C - 3.0 mph SSE4.8 kmh SSE 4.5 mph7.2 kmh 25.16 in852.0 mb 0.00 in0.0 mm 0.00 in/hr0.0 mm/hr 0.00 in0.0 mm
09:55 PM 87.8°F31.0°C -5537.2°C - 2.0 mph SSE3.2 kmh SSE 4.0 mph6.4 kmh 25.16 in852.0 mb 0.00 in0.0 mm 0.00 in/hr0.0 mm/hr 0.00 in0.0 mm
10:00 PM 87.8°F31.0°C -5537.2°C - 2.0 mph SE3.2 kmh SE 6.3 mph10.1 kmh 25.16 in852.0 mb 0.00 in0.0 mm 0.00 in/hr0.0 mm/hr 0.00 in0.0 mm
10:05 PM 87.3°F30.7°C -5537.2°C - 1.0 mph E1.6 kmh E 4.0 mph6.4 kmh 25.16 in852.0 mb 0.00 in0.0 mm 0.00 in/hr0.0 mm/hr 0.00 in0.0 mm
10:10 PM 87.1°F30.6°C -5537.2°C - 1.0 mph E1.6 kmh E 6.3 mph10.1 kmh 25.16 in852.0 mb 0.00 in0.0 mm 0.00 in/hr0.0 mm/hr 0.00 in0.0 mm
10:15 PM 86.9°F30.5°C -5537.2°C - 2.0 mph E3.2 kmh E 5.4 mph8.7 kmh 25.16 in852.0 mb 0.00 in0.0 mm 0.00 in/hr0.0 mm/hr 0.00 in0.0 mm
10:20 PM 86.7°F30.4°C -5537.2°C - 2.0 mph E3.2 kmh E 6.7 mph10.8 kmh 25.16 in852.0 mb 0.00 in0.0 mm 0.00 in/hr0.0 mm/hr 0.00 in0.0 mm
10:25 PM 86.7°F30.4°C -5537.2°C - 2.0 mph ESE3.2 kmh ESE 5.4 mph8.7 kmh 25.16 in852.0 mb 0.00 in0.0 mm 0.00 in/hr0.0 mm/hr 0.00 in0.0 mm
10:30 PM 86.5°F30.3°C -5537.2°C - 3.0 mph ESE4.8 kmh ESE 6.7 mph10.8 kmh 25.16 in852.0 mb 0.00 in0.0 mm 0.00 in/hr0.0 mm/hr 0.00 in0.0 mm
10:35 PM 86.4°F30.2°C -5537.2°C - 5.0 mph SE8.0 kmh SE 9.6 mph15.4 kmh 25.16 in852.0 mb 0.00 in0.0 mm 0.00 in/hr0.0 mm/hr 0.00 in0.0 mm
10:40 PM 87.8°F31.0°C -5537.2°C - 7.0 mph SE11.3 kmh SE 15.4 mph24.8 kmh 25.16 in852.0 mb 0.00 in0.0 mm 0.00 in/hr0.0 mm/hr 0.00 in0.0 mm
10:45 PM 87.6°F30.9°C -5537.2°C - 8.0 mph SE12.9 kmh SE 10.5 mph16.9 kmh 25.16 in852.0 mb 0.00 in0.0 mm 0.00 in/hr0.0 mm/hr 0.00 in0.0 mm
10:50 PM 87.1°F30.6°C -5537.2°C - 7.0 mph SE11.3 kmh SE 12.1 mph19.5 kmh 25.16 in852.0 mb 0.00 in0.0 mm 0.00 in/hr0.0 mm/hr 0.00 in0.0 mm
10:55 PM 86.2°F30.1°C -5537.2°C - 7.0 mph SE11.3 kmh SE 10.1 mph16.3 kmh 25.16 in852.0 mb 0.00 in0.0 mm 0.00 in/hr0.0 mm/hr 0.00 in0.0 mm
11:00 PM 85.8°F29.9°C -5537.2°C - 6.0 mph SE9.7 kmh SE 12.5 mph20.1 kmh 25.16 in852.0 mb 0.00 in0.0 mm 0.00 in/hr0.0 mm/hr 0.00 in0.0 mm
11:05 PM 85.6°F29.8°C -5537.2°C - 5.0 mph SE8.0 kmh SE 10.1 mph16.3 kmh 25.16 in852.0 mb 0.00 in0.0 mm 0.00 in/hr0.0 mm/hr 0.00 in0.0 mm
11:10 PM 86.0°F30.0°C -5537.2°C - 4.0 mph SE6.4 kmh SE 7.4 mph11.9 kmh 25.16 in852.0 mb 0.00 in0.0 mm 0.00 in/hr0.0 mm/hr 0.00 in0.0 mm
11:15 PM 85.1°F29.5°C -5537.2°C - 3.0 mph SE4.8 kmh SE 5.8 mph9.3 kmh 25.16 in852.0 mb 0.00 in0.0 mm 0.00 in/hr0.0 mm/hr 0.00 in0.0 mm
11:20 PM 84.4°F29.1°C -5537.2°C - 2.0 mph SE3.2 kmh SE 5.8 mph9.3 kmh 25.16 in852.0 mb 0.00 in0.0 mm 0.00 in/hr0.0 mm/hr 0.00 in0.0 mm
11:25 PM 83.7°F28.7°C -5537.2°C - 1.0 mph SE1.6 kmh SE 4.9 mph7.9 kmh 25.16 in852.0 mb 0.00 in0.0 mm 0.00 in/hr0.0 mm/hr 0.00 in0.0 mm
11:30 PM 83.1°F28.4°C -5537.2°C - 1.0 mph SE1.6 kmh SE 3.6 mph5.8 kmh 25.16 in852.0 mb 0.00 in0.0 mm 0.00 in/hr0.0 mm/hr 0.00 in0.0 mm
11:35 PM 82.9°F28.3°C -5537.2°C - Calm Calm 2.7 mph4.3 kmh 25.16 in852.0 mb 0.00 in0.0 mm 0.00 in/hr0.0 mm/hr 0.00 in0.0 mm
11:40 PM 82.8°F28.2°C -5537.2°C - Calm Calm 2.7 mph4.3 kmh 25.16 in852.0 mb 0.00 in0.0 mm 0.00 in/hr0.0 mm/hr 0.00 in0.0 mm
11:45 PM 82.6°F28.1°C -5537.2°C - Calm Calm 2.7 mph4.3 kmh 25.16 in852.0 mb 0.00 in0.0 mm 0.00 in/hr0.0 mm/hr 0.00 in0.0 mm
11:50 PM 82.2°F27.9°C -5537.2°C - Calm Calm 3.6 mph5.8 kmh 25.16 in852.0 mb 0.00 in0.0 mm 0.00 in/hr0.0 mm/hr 0.00 in0.0 mm
11:55 PM 81.9°F27.7°C -5537.2°C - Calm Calm 2.7 mph4.3 kmh 25.16 in852.0 mb 0.00 in0.0 mm 0.00 in/hr0.0 mm/hr 0.00 in0.0 mm